Time,TemperatureF,DewpointF,PressureIn,WindDirection,WindDirectionDegrees,WindSpeedMPH,WindSpeedGustMPH,Humidity,HourlyPrecipIn,Conditions,Clouds,dailyrainin,SoftwareType,DateUTC
2013-03-22 00:13:00,57.4,55.0,29.93,ESE,107,0.0,-999.0,91,-99.99,,,0.00,weatherlink.com 1.10,2013-03-22 04:13:00,
2013-03-22 00:28:00,57.4,55.0,29.93,ESE,107,0.0,-999.0,91,-99.99,,,0.00,weatherlink.com 1.10,2013-03-22 04:28:00,
2013-03-22 00:43:00,57.0,55.0,29.93,ESE,107,0.0,-999.0,91,-99.99,,,0.00,weatherlink.com 1.10,2013-03-22 04:43:00,
2013-03-22 00:58:00,56.9,54.0,29.92,ESE,107,0.0,-999.0,91,-99.99,,,0.00,weatherlink.com 1.10,2013-03-22 04:58:00,
2013-03-22 01:13:00,56.6,54.0,29.92,ESE,107,0.0,-999.0,92,-99.99,,,0.00,weatherlink.com 1.10,2013-03-22 05:13:00,
2013-03-22 01:28:00,56.5,54.0,29.92,ESE,108,0.0,-999.0,92,-99.99,,,0.00,weatherlink.com 1.10,2013-03-22 05:28:00,
2013-03-22 01:43:00,56.6,55.0,29.92,ESE,107,0.0,-999.0,93,-99.99,,,0.00,weatherlink.com 1.10,2013-03-22 05:43:00,
2013-03-22 01:58:00,55.9,54.0,29.92,ESE,107,0.0,-999.0,92,-99.99,,,0.00,weatherlink.com 1.10,2013-03-22 05:58:00,
2013-03-22 02:14:00,55.8,54.0,29.92,ESE,108,0.0,-999.0,93,-99.99,,,0.00,weatherlink.com 1.10,2013-03-22 06:14:00,
2013-03-22 02:28:00,56.3,55.0,29.92,ESE,107,0.0,-999.0,94,-99.99,,,0.00,weatherlink.com 1.10,2013-03-22 06:28:00,
2013-03-22 02:43:00,56.3,55.0,29.91,ESE,107,0.0,-999.0,94,-99.99,,,0.00,weatherlink.com 1.10,2013-03-22 06:43:00,
2013-03-22 02:58:00,56.6,55.0,29.91,ESE,107,0.0,-999.0,94,-99.99,,,0.00,weatherlink.com 1.10,2013-03-22 06:58:00,
2013-03-22 03:13:00,56.6,55.0,29.90,ESE,108,0.0,-999.0,95,-99.99,,,0.00,weatherlink.com 1.10,2013-03-22 07:13:00,
2013-03-22 03:28:00,56.3,55.0,29.90,ESE,107,0.0,-999.0,95,-99.99,,,0.00,weatherlink.com 1.10,2013-03-22 07:28:00,
2013-03-22 03:43:00,55.8,54.0,29.90,ESE,108,0.0,-999.0,95,-99.99,,,0.00,weatherlink.com 1.10,2013-03-22 07:43:00,
2013-03-22 03:59:00,55.4,54.0,29.90,ESE,107,0.0,-999.0,94,-99.99,,,0.00,weatherlink.com 1.10,2013-03-22 07:59:00,
2013-03-22 04:14:00,55.8,55.0,29.90,ESE,107,0.0,-999.0,96,-99.99,,,0.00,weatherlink.com 1.10,2013-03-22 08:14:00,
2013-03-22 04:29:00,55.9,55.0,29.89,ESE,107,0.0,-999.0,96,-99.99,,,0.00,weatherlink.com 1.10,2013-03-22 08:29:00,
2013-03-22 04:44:00,55.4,54.0,29.89,ESE,107,0.0,-999.0,95,-99.99,,,0.00,weatherlink.com 1.10,2013-03-22 08:44:00,
2013-03-22 04:59:00,55.2,54.0,29.89,ESE,108,0.0,-999.0,96,-99.99,,,0.00,weatherlink.com 1.10,2013-03-22 08:59:00,
2013-03-22 05:14:00,55.5,54.0,29.89,ESE,108,0.0,-999.0,96,-99.99,,,0.00,weatherlink.com 1.10,2013-03-22 09:14:00,
2013-03-22 05:29:00,56.1,55.0,29.90,ESE,108,0.0,-999.0,96,-99.99,,,0.00,weatherlink.com 1.10,2013-03-22 09:29:00,
2013-03-22 05:44:00,55.9,55.0,29.90,ESE,108,0.0,-999.0,95,-99.99,,,0.00,weatherlink.com 1.10,2013-03-22 09:44:00,
2013-03-22 05:59:00,55.8,55.0,29.91,ESE,108,0.0,-999.0,96,-99.99,,,0.00,weatherlink.com 1.10,2013-03-22 09:59:00,
2013-03-22 06:14:00,55.8,55.0,29.91,ESE,108,0.0,-999.0,96,-99.99,,,0.00,weatherlink.com 1.10,2013-03-22 10:14:00,
2013-03-22 06:29:00,56.1,55.0,29.91,ESE,108,0.0,-999.0,96,-99.99,,,0.00,weatherlink.com 1.10,2013-03-22 10:29:00,
2013-03-22 06:44:00,56.5,55.0,29.92,ESE,107,0.0,-999.0,96,-99.99,,,0.00,weatherlink.com 1.10,2013-03-22 10:44:00,
2013-03-22 06:59:00,56.9,56.0,29.93,ESE,107,0.0,-999.0,96,-99.99,,,0.00,weatherlink.com 1.10,2013-03-22 10:59:00,
2013-03-22 07:14:00,57.5,56.0,29.93,ESE,108,0.0,-999.0,95,-99.99,,,0.00,weatherlink.com 1.10,2013-03-22 11:14:00,
2013-03-22 07:29:00,57.6,56.0,29.94,ESE,107,0.0,-999.0,94,-99.99,,,0.00,weatherlink.com 1.10,2013-03-22 11:29:00,
2013-03-22 07:44:00,58.4,56.0,29.94,ESE,107,0.0,-999.0,92,-99.99,,,0.00,weatherlink.com 1.10,2013-03-22 11:44:00,
2013-03-22 07:59:00,60.4,56.0,29.95,ENE,69,0.0,-999.0,85,-99.99,,,0.00,weatherlink.com 1.10,2013-03-22 11:59:00,
2013-03-22 08:15:00,61.8,57.0,29.95,ENE,61,1.0,-999.0,83,-99.99,,,0.00,weatherlink.com 1.10,2013-03-22 12:15:00,
2013-03-22 08:30:00,64.2,58.0,29.95,ENE,63,0.0,-999.0,79,-99.99,,,0.00,weatherlink.com 1.10,2013-03-22 12:30:00,
2013-03-22 08:45:00,65.1,58.0,29.96,East,84,1.0,-999.0,77,-99.99,,,0.00,weatherlink.com 1.10,2013-03-22 12:45:00,
2013-03-22 08:59:00,66.6,59.0,29.97,East,84,0.0,-999.0,76,-99.99,,,0.00,weatherlink.com 1.10,2013-03-22 12:59:00,
2013-03-22 09:14:00,69.5,60.0,29.98,SE,146,1.0,-999.0,72,-99.99,,,0.00,weatherlink.com 1.10,2013-03-22 13:14:00,
2013-03-22 09:30:00,71.0,61.0,29.98,ESE,114,2.0,-999.0,70,-99.99,,,0.00,weatherlink.com 1.10,2013-03-22 13:30:00,
2013-03-22 09:45:00,72.4,59.0,29.98,SE,135,5.0,-999.0,64,-99.99,,,0.00,weatherlink.com 1.10,2013-03-22 13:45:00,
2013-03-22 10:00:00,73.2,60.0,29.98,SSE,160,4.0,-999.0,63,-99.99,,,0.00,weatherlink.com 1.10,2013-03-22 14:00:00,
2013-03-22 10:15:00,73.7,60.0,29.98,SSE,150,5.0,-999.0,63,-99.99,,,0.00,weatherlink.com 1.10,2013-03-22 14:15:00,
2013-03-22 10:30:00,74.5,61.0,29.98,SE,144,1.0,-999.0,62,-99.99,,,0.00,weatherlink.com 1.10,2013-03-22 14:30:00,
2013-03-22 10:44:00,74.6,60.0,29.99,South,190,3.0,-999.0,61,-99.99,,,0.00,weatherlink.com 1.10,2013-03-22 14:44:00,
2013-03-22 11:00:00,75.2,60.0,29.99,ESE,111,5.0,-999.0,60,-99.99,,,0.00,weatherlink.com 1.10,2013-03-22 15:00:00,
2013-03-22 11:15:00,75.1,61.0,30.00,SE,124,4.0,-999.0,61,-99.99,,,0.00,weatherlink.com 1.10,2013-03-22 15:15:00,
2013-03-22 11:30:00,76.1,61.0,29.99,East,98,6.0,-999.0,60,-99.99,,,0.00,weatherlink.com 1.10,2013-03-22 15:30:00,
2013-03-22 11:44:00,76.3,61.0,30.00,SE,138,2.0,-999.0,59,-99.99,,,0.00,weatherlink.com 1.10,2013-03-22 15:44:00,
2013-03-22 12:00:00,75.7,61.0,29.99,East,95,9.0,-999.0,60,-99.99,,,0.00,weatherlink.com 1.10,2013-03-22 16:00:00,
2013-03-22 12:15:00,75.3,61.0,29.99,ESE,121,7.0,-999.0,62,-99.99,,,0.00,weatherlink.com 1.10,2013-03-22 16:15:00,
2013-03-22 12:30:00,74.6,61.0,30.00,East,82,3.0,-999.0,62,-99.99,,,0.00,weatherlink.com 1.10,2013-03-22 16:30:00,
2013-03-22 12:45:00,74.5,60.0,29.99,SW,215,6.0,-999.0,61,-99.99,,,0.00,weatherlink.com 1.10,2013-03-22 16:45:00,
2013-03-22 13:00:00,74.4,60.0,29.99,SSW,195,3.0,-999.0,62,-99.99,,,0.00,weatherlink.com 1.10,2013-03-22 17:00:00,
2013-03-22 13:15:00,75.9,61.0,29.99,SSE,163,5.0,-999.0,60,-99.99,,,0.00,weatherlink.com 1.10,2013-03-22 17:15:00,
2013-03-22 13:30:00,76.3,61.0,29.98,SE,128,7.0,-999.0,59,-99.99,,,0.00,weatherlink.com 1.10,2013-03-22 17:30:00,
2013-03-22 13:45:00,75.4,60.0,29.98,SSE,168,2.0,-999.0,60,-99.99,,,0.00,weatherlink.com 1.10,2013-03-22 17:45:00,
2013-03-22 14:15:00,76.1,60.0,29.96,South,176,7.0,-999.0,58,-99.99,,,0.00,weatherlink.com 1.10,2013-03-22 18:15:00,
2013-03-22 14:30:00,74.6,60.0,29.95,South,172,6.0,-999.0,60,-99.99,,,0.00,weatherlink.com 1.10,2013-03-22 18:30:00,
2013-03-22 14:45:00,74.1,60.0,29.94,ESE,110,9.0,-999.0,61,-99.99,,,0.00,weatherlink.com 1.10,2013-03-22 18:45:00,
2013-03-22 15:00:00,74.1,60.0,29.94,ESE,118,13.0,-999.0,61,-99.99,,,0.00,weatherlink.com 1.10,2013-03-22 19:00:00,
2013-03-22 15:15:00,75.4,60.0,29.93,SSW,196,4.0,-999.0,59,-99.99,,,0.00,weatherlink.com 1.10,2013-03-22 19:15:00,
2013-03-22 15:30:00,75.3,60.0,29.93,SE,128,1.0,-999.0,60,-99.99,,,0.00,weatherlink.com 1.10,2013-03-22 19:30:00,
2013-03-22 15:45:00,75.2,60.0,29.92,SSW,198,4.0,-999.0,60,-99.99,,,0.00,weatherlink.com 1.10,2013-03-22 19:45:00,
2013-03-22 16:00:00,74.6,61.0,29.93,South,183,4.0,-999.0,62,-99.99,,,0.00,weatherlink.com 1.10,2013-03-22 20:00:00,
2013-03-22 16:16:00,75.0,62.0,29.92,SSE,165,4.0,-999.0,64,-99.99,,,0.00,weatherlink.com 1.10,2013-03-22 20:16:00,
2013-03-22 16:30:00,74.4,62.0,29.91,SE,144,2.0,-999.0,65,-99.99,,,0.00,weatherlink.com 1.10,2013-03-22 20:30:00,
2013-03-22 16:45:00,74.2,62.0,29.91,SSE,167,4.0,-999.0,65,-99.99,,,0.00,weatherlink.com 1.10,2013-03-22 20:45:00,
2013-03-22 16:59:00,74.1,62.0,29.91,SE,141,4.0,-999.0,66,-99.99,,,0.00,weatherlink.com 1.10,2013-03-22 20:59:00,
2013-03-22 17:15:00,74.5,63.0,29.91,SSE,168,4.0,-999.0,68,-99.99,,,0.00,weatherlink.com 1.10,2013-03-22 21:15:00,
2013-03-22 17:30:00,74.4,64.0,29.91,SSW,209,2.0,-999.0,69,-99.99,,,0.00,weatherlink.com 1.10,2013-03-22 21:30:00,
2013-03-22 17:45:00,74.7,64.0,29.91,SSE,159,6.0,-999.0,70,-99.99,,,0.00,weatherlink.com 1.10,2013-03-22 21:45:00,
2013-03-22 18:00:00,74.3,65.0,29.91,SSW,196,5.0,-999.0,72,-99.99,,,0.00,weatherlink.com 1.10,2013-03-22 22:00:00,
2013-03-22 18:15:00,74.6,65.0,29.91,ESE,123,14.0,-999.0,72,-99.99,,,0.00,weatherlink.com 1.10,2013-03-22 22:15:00,
2013-03-22 18:30:00,74.3,66.0,29.91,SSW,210,6.0,-999.0,74,-99.99,,,0.00,weatherlink.com 1.10,2013-03-22 22:30:00,
2013-03-22 18:45:00,74.1,66.0,29.91,SSW,194,3.0,-999.0,76,-99.99,,,0.00,weatherlink.com 1.10,2013-03-22 22:45:00,
2013-03-22 19:00:00,74.0,66.0,29.92,SSW,200,5.0,-999.0,77,-99.99,,,0.00,weatherlink.com 1.10,2013-03-22 23:00:00,
2013-03-22 19:15:00,73.7,67.0,29.93,SW,217,8.0,-999.0,79,-99.99,,,0.00,weatherlink.com 1.10,2013-03-22 23:15:00,
2013-03-22 19:30:00,73.5,67.0,29.93,SSE,150,2.0,-999.0,80,-99.99,,,0.00,weatherlink.com 1.10,2013-03-22 23:30:00,
2013-03-22 19:45:00,73.5,67.0,29.93,South,180,3.0,-999.0,80,-99.99,,,0.00,weatherlink.com 1.10,2013-03-22 23:45:00,
2013-03-22 20:00:00,73.5,67.0,29.93,SSW,199,3.0,-999.0,81,-99.99,,,0.00,weatherlink.com 1.10,2013-03-23 00:00:00,
2013-03-22 20:15:00,73.5,68.0,29.92,SE,142,2.0,-999.0,82,-99.99,,,0.00,weatherlink.com 1.10,2013-03-23 00:15:00,
2013-03-22 20:30:00,73.6,68.0,29.94,SSE,156,2.0,-999.0,82,-99.99,,,0.00,weatherlink.com 1.10,2013-03-23 00:30:00,
2013-03-22 20:46:00,73.6,68.0,29.94,SSE,155,4.0,-999.0,83,-99.99,,,0.00,weatherlink.com 1.10,2013-03-23 00:46:00,
2013-03-22 21:00:00,73.7,69.0,29.94,SE,133,4.0,-999.0,84,-99.99,,,0.00,weatherlink.com 1.10,2013-03-23 01:00:00,
2013-03-22 21:15:00,73.7,69.0,29.94,SSE,152,7.0,-999.0,84,-99.99,,,0.00,weatherlink.com 1.10,2013-03-23 01:15:00,
2013-03-22 21:30:00,73.6,69.0,29.95,South,174,1.0,-999.0,84,-99.99,,,0.00,weatherlink.com 1.10,2013-03-23 01:30:00,
2013-03-22 21:45:00,73.6,69.0,29.96,SSE,156,6.0,-999.0,85,-99.99,,,0.00,weatherlink.com 1.10,2013-03-23 01:45:00,
2013-03-22 22:00:00,73.4,69.0,29.96,SE,127,4.0,-999.0,87,-99.99,,,0.01,weatherlink.com 1.10,2013-03-23 02:00:00,
2013-03-22 22:15:00,72.9,69.0,29.96,SSE,157,1.0,-999.0,88,-99.99,,,0.01,weatherlink.com 1.10,2013-03-23 02:15:00,
2013-03-22 22:30:00,72.9,70.0,29.96,SSW,207,3.0,-999.0,89,-99.99,,,0.01,weatherlink.com 1.10,2013-03-23 02:30:00,
2013-03-22 22:45:00,72.8,70.0,29.97,South,174,1.0,-999.0,89,-99.99,,,0.01,weatherlink.com 1.10,2013-03-23 02:45:00,
2013-03-22 23:00:00,72.8,70.0,29.96,SE,134,6.0,-999.0,89,-99.99,,,0.01,weatherlink.com 1.10,2013-03-23 03:00:00,
2013-03-22 23:15:00,72.8,70.0,29.96,SSW,211,5.0,-999.0,89,-99.99,,,0.01,weatherlink.com 1.10,2013-03-23 03:15:00,
2013-03-22 23:30:00,72.8,70.0,29.98,South,178,1.0,-999.0,89,-99.99,,,0.01,weatherlink.com 1.10,2013-03-23 03:30:00,
2013-03-22 23:45:00,72.5,70.0,29.98,SSW,198,0.0,-999.0,90,-99.99,,,0.01,weatherlink.com 1.10,2013-03-23 03:45:00,